Airport View

Enter AWOS ICAO identifier for current METAR.

ex. KFNL

KPSO 220110Z AUTO 00000KT 7SM -SN SCT012 BKN017 OVC031 M01/M07 A3000 RMK AO2 T10101073

22 Feb 2018 01:10

Frequency: 127.175

Phone: 970-731-0365

Other Area AWOS: KCPW - KDRO - KRCV - KTEX

TAF AMD KALS 220106Z 2201/2224 17009KT P6SM SCT060 FM220700 17010KT P6SM SCT080 BKN150 FM221200 19008KT 5SM BR VCSH BKN012 OVC030 FM221700 21012KT P6SM SCT050 BKN100 FM222000 23015G25KT P6SM SCT150